createdAt,value
2023-07-27T00:00:28.558Z,17.20
2023-07-27T00:02:56.841Z,17.20
2023-07-27T00:05:25.203Z,17.20
2023-07-27T00:07:54.696Z,17.20
2023-07-27T00:10:25.260Z,17.20
2023-07-27T00:12:53.601Z,17.20
2023-07-27T00:15:21.903Z,17.10
2023-07-27T00:17:54.050Z,17.10
2023-07-27T00:20:22.249Z,17.10
2023-07-27T00:22:50.564Z,17.10
2023-07-27T00:25:21.254Z,17.00
2023-07-27T00:27:49.460Z,17.00
2023-07-27T00:30:17.772Z,17.00
2023-07-27T00:32:46.153Z,17.00
2023-07-27T00:35:18.472Z,17.00
2023-07-27T00:37:47.604Z,16.90
2023-07-27T00:40:15.887Z,16.90
2023-07-27T00:42:44.153Z,16.90
2023-07-27T00:45:12.740Z,16.90
2023-07-27T00:47:41.835Z,16.80
2023-07-27T00:50:10.856Z,16.90
2023-07-27T00:52:41.737Z,16.80
2023-07-27T00:55:10.436Z,16.80
2023-07-27T00:57:41.553Z,16.70
2023-07-27T01:00:11.152Z,16.70
2023-07-27T01:02:40.046Z,16.70
2023-07-27T01:05:08.491Z,16.60
2023-07-27T01:07:36.643Z,16.60
2023-07-27T01:10:07.998Z,16.60
2023-07-27T01:12:43.729Z,16.50
2023-07-27T01:15:17.073Z,16.50
2023-07-27T01:17:54.785Z,16.50
2023-07-27T01:20:32.020Z,16.50
2023-07-27T01:23:33.643Z,16.40
2023-07-27T01:26:46.663Z,16.40
2023-07-27T01:29:37.640Z,16.40
2023-07-27T01:32:09.711Z,16.40
2023-07-27T01:34:42.537Z,16.30
2023-07-27T01:37:14.179Z,16.30
2023-07-27T01:39:45.658Z,16.30
2023-07-27T01:42:14.807Z,16.30
2023-07-27T01:44:43.932Z,16.20
2023-07-27T01:47:14.112Z,16.20
2023-07-27T01:49:44.294Z,16.20
2023-07-27T01:52:15.236Z,16.20
2023-07-27T01:54:43.941Z,16.10
2023-07-27T01:57:12.750Z,16.10
2023-07-27T01:59:41.526Z,16.10
2023-07-27T02:02:10.579Z,16.10
2023-07-27T02:04:40.478Z,16.00
2023-07-27T02:07:08.691Z,16.00
2023-07-27T02:09:36.968Z,16.00
2023-07-27T02:12:14.354Z,16.00
2023-07-27T02:14:47.674Z,16.00
2023-07-27T02:17:22.498Z,16.00
2023-07-27T02:19:57.640Z,15.90
2023-07-27T02:22:28.052Z,15.90
2023-07-27T02:24:58.534Z,16.00
2023-07-27T02:27:27.252Z,15.90
2023-07-27T02:29:55.553Z,16.00
2023-07-27T02:32:23.728Z,16.00
2023-07-27T02:34:56.499Z,16.00
2023-07-27T02:37:27.553Z,16.00
2023-07-27T02:39:56.330Z,16.00
2023-07-27T02:42:24.601Z,16.00
2023-07-27T02:44:55.356Z,16.00
2023-07-27T02:47:23.658Z,15.90
2023-07-27T02:49:51.943Z,15.90
2023-07-27T02:52:21.805Z,15.90
2023-07-27T02:54:50.123Z,15.90
2023-07-27T02:57:20.604Z,15.90
2023-07-27T02:59:52.471Z,15.90
2023-07-27T03:02:20.969Z,15.90
2023-07-27T03:04:49.457Z,15.80
2023-07-27T03:07:19.119Z,15.80
2023-07-27T03:09:53.359Z,15.70
2023-07-27T03:12:22.500Z,15.70
2023-07-27T03:14:51.690Z,15.70
2023-07-27T03:17:22.209Z,15.70
2023-07-27T03:19:50.662Z,15.70
2023-07-27T03:22:19.289Z,15.70
2023-07-27T03:24:48.320Z,15.70
2023-07-27T03:27:18.878Z,15.70
2023-07-27T03:29:47.206Z,15.60
2023-07-27T03:32:15.517Z,15.70
2023-07-27T03:34:43.830Z,15.60
2023-07-27T03:37:12.935Z,15.60
2023-07-27T03:39:41.150Z,15.60
2023-07-27T03:42:09.656Z,15.60
2023-07-27T03:44:40.547Z,15.60
2023-07-27T03:47:11.098Z,15.60
2023-07-27T03:49:39.300Z,15.60
2023-07-27T03:52:07.880Z,15.60
2023-07-27T03:54:36.316Z,15.60
2023-07-27T03:57:04.693Z,15.60
2023-07-27T03:59:33.168Z,15.60
2023-07-27T04:02:05.571Z,15.70
2023-07-27T04:04:33.950Z,15.70
2023-07-27T04:07:02.411Z,15.70
2023-07-27T04:09:30.727Z,15.70
2023-07-27T04:11:59.395Z,15.70
2023-07-27T04:14:27.943Z,15.70
2023-07-27T04:16:58.557Z,15.70
2023-07-27T04:19:28.211Z,15.70
2023-07-27T04:21:56.400Z,15.70
2023-07-27T04:24:24.879Z,15.70
2023-07-27T04:26:53.054Z,15.80
2023-07-27T04:29:21.371Z,15.70
2023-07-27T04:31:49.567Z,15.80
2023-07-27T04:34:18.346Z,15.80
2023-07-27T04:36:48.703Z,15.80
2023-07-27T04:39:19.241Z,15.90
2023-07-27T04:41:47.528Z,15.90
2023-07-27T04:44:16.216Z,15.90
2023-07-27T04:46:44.690Z,16.00
2023-07-27T04:49:16.006Z,16.10
2023-07-27T04:51:44.253Z,16.10
2023-07-27T04:54:13.963Z,16.10
2023-07-27T04:56:42.299Z,16.20
2023-07-27T04:59:10.564Z,16.20
2023-07-27T05:01:38.804Z,16.30
2023-07-27T05:04:07.268Z,16.40
2023-07-27T05:06:37.227Z,16.50
2023-07-27T05:09:05.695Z,16.60
2023-07-27T05:11:35.998Z,16.70
2023-07-27T05:14:04.480Z,16.70
2023-07-27T05:16:33.276Z,16.90
2023-07-27T05:19:04.499Z,17.20
2023-07-27T05:21:35.142Z,17.00
2023-07-27T05:24:05.224Z,17.10
2023-07-27T05:26:47.621Z,17.10
2023-07-27T05:29:28.159Z,17.20
2023-07-27T05:32:02.619Z,17.20
2023-07-27T05:34:31.362Z,17.30
2023-07-27T05:37:18.040Z,17.40
2023-07-27T05:39:55.807Z,17.50
2023-07-27T05:42:40.725Z,17.60
2023-07-27T05:45:29.578Z,17.60
2023-07-27T05:48:04.741Z,17.80
2023-07-27T05:50:37.344Z,17.90
2023-07-27T05:53:09.679Z,18.00
2023-07-27T05:55:57.662Z,18.20
2023-07-27T05:58:37.166Z,18.30
2023-07-27T06:01:11.015Z,18.40
2023-07-27T06:06:33.381Z,18.60
2023-07-27T06:09:05.214Z,18.70
2023-07-27T06:11:43.922Z,18.70
2023-07-27T06:14:17.337Z,18.70
2023-07-27T06:16:47.455Z,18.90
2023-07-27T06:19:28.860Z,18.90
2023-07-27T06:21:57.680Z,19.00
2023-07-27T06:24:50.603Z,19.10
2023-07-27T06:27:31.229Z,19.20
2023-07-27T06:33:02.124Z,19.60
2023-07-27T06:35:41.152Z,19.70
2023-07-27T06:38:21.438Z,19.90
2023-07-27T06:41:00.226Z,20.10
2023-07-27T06:43:35.975Z,20.20
2023-07-27T06:46:09.930Z,20.20
2023-07-27T06:48:55.703Z,20.30
2023-07-27T06:51:42.826Z,20.40
2023-07-27T06:54:45.183Z,20.30
2023-07-27T06:57:27.071Z,20.50
2023-07-27T07:00:05.256Z,20.50
2023-07-27T07:02:56.851Z,20.70
2023-07-27T07:05:28.099Z,20.40
2023-07-27T07:08:02.680Z,20.80
2023-07-27T07:14:43.740Z,21.00
2023-07-27T07:17:14.910Z,21.20
2023-07-27T07:19:55.770Z,21.30
2023-07-27T07:25:15.085Z,21.60
2023-07-27T07:27:46.739Z,21.80
2023-07-27T07:30:18.739Z,22.00
2023-07-27T07:32:51.883Z,22.20
2023-07-27T07:35:29.608Z,22.40
2023-07-27T07:38:09.618Z,22.50
2023-07-27T07:40:49.081Z,22.60
2023-07-27T07:43:19.042Z,22.80
2023-07-27T07:45:53.956Z,22.70
2023-07-27T07:48:32.865Z,23.00
2023-07-27T07:51:08.049Z,23.10
2023-07-27T07:53:43.569Z,23.20
2023-07-27T07:56:15.946Z,23.40
2023-07-27T07:58:48.797Z,23.60
2023-07-27T08:01:18.986Z,23.70
2023-07-27T08:03:52.170Z,23.80
2023-07-27T08:06:27.317Z,24.10
2023-07-27T08:08:57.984Z,24.20
2023-07-27T08:11:39.230Z,24.30
2023-07-27T08:14:18.980Z,24.40
2023-07-27T08:17:19.224Z,24.60
2023-07-27T08:19:47.559Z,24.60
2023-07-27T08:22:21.807Z,24.70
2023-07-27T08:25:06.648Z,24.70
2023-07-27T08:31:01.633Z,24.70
2023-07-27T08:33:41.188Z,24.90
2023-07-27T08:36:19.893Z,25.10
2023-07-27T08:38:59.832Z,25.30
2023-07-27T08:41:43.437Z,25.40
2023-07-27T08:44:15.178Z,25.40
2023-07-27T08:46:48.780Z,25.30
2023-07-27T08:49:24.509Z,25.40
2023-07-27T08:51:53.078Z,25.40
2023-07-27T08:54:42.653Z,25.50
2023-07-27T08:57:21.901Z,25.80
2023-07-27T09:00:08.914Z,25.90
2023-07-27T09:02:52.232Z,26.10
2023-07-27T09:05:27.087Z,26.10
2023-07-27T09:08:15.574Z,26.20
2023-07-27T09:10:49.931Z,26.10
2023-07-27T09:13:30.000Z,26.30
2023-07-27T09:16:20.009Z,26.40
2023-07-27T09:19:02.649Z,26.50
2023-07-27T09:21:54.095Z,26.70
2023-07-27T09:24:38.039Z,26.80
2023-07-27T09:27:27.695Z,26.70
2023-07-27T09:30:14.522Z,26.80
2023-07-27T09:33:10.243Z,26.70
2023-07-27T09:35:46.855Z,26.90
2023-07-27T09:38:19.906Z,26.90
2023-07-27T09:40:54.668Z,27.00
2023-07-27T09:43:26.822Z,27.00
2023-07-27T09:46:10.696Z,26.80
2023-07-27T09:49:09.269Z,26.50
2023-07-27T09:51:55.248Z,26.40
2023-07-27T09:54:44.967Z,26.60
2023-07-27T09:57:16.687Z,26.50
2023-07-27T10:00:14.853Z,26.50
2023-07-27T10:03:02.115Z,26.50
2023-07-27T10:05:50.715Z,26.40
2023-07-27T10:08:22.570Z,26.40
2023-07-27T10:10:57.428Z,26.20
2023-07-27T10:13:40.453Z,26.00
2023-07-27T10:16:21.694Z,25.90
2023-07-27T10:19:05.429Z,25.80
2023-07-27T10:21:38.277Z,25.70
2023-07-27T10:24:26.723Z,25.60
2023-07-27T10:26:59.773Z,25.50
2023-07-27T10:29:28.746Z,25.20
2023-07-27T10:32:07.532Z,25.10
2023-07-27T10:34:45.789Z,24.90
2023-07-27T10:37:26.740Z,24.90
2023-07-27T10:40:04.781Z,24.80
2023-07-27T10:42:42.252Z,24.70
2023-07-27T10:48:28.447Z,24.80
2023-07-27T10:51:22.266Z,24.90
2023-07-27T10:54:13.490Z,25.10
2023-07-27T10:57:02.008Z,25.20
2023-07-27T10:59:45.635Z,25.30
2023-07-27T11:02:37.327Z,25.40
2023-07-27T11:05:25.245Z,25.70
2023-07-27T11:08:08.880Z,26.20
2023-07-27T11:13:35.964Z,26.20
2023-07-27T11:16:20.951Z,26.30
2023-07-27T11:18:59.268Z,26.40
2023-07-27T11:22:05.937Z,26.30
2023-07-27T11:25:02.045Z,26.30
2023-07-27T11:27:51.898Z,26.30
2023-07-27T11:30:26.379Z,26.40
2023-07-27T11:33:12.699Z,26.50
2023-07-27T11:35:49.050Z,26.50
2023-07-27T11:38:33.037Z,26.40
2023-07-27T11:41:41.912Z,26.30
2023-07-27T11:44:38.170Z,26.20
2023-07-27T11:47:46.762Z,26.30
2023-07-27T11:50:32.265Z,25.90
2023-07-27T11:56:25.143Z,25.90
2023-07-27T11:59:24.392Z,25.90
2023-07-27T12:02:03.018Z,26.00
2023-07-27T12:04:41.523Z,26.00
2023-07-27T12:07:26.394Z,26.20
2023-07-27T12:10:14.435Z,26.60
2023-07-27T12:21:33.342Z,26.40
2023-07-27T12:29:45.077Z,25.90
2023-07-27T12:32:28.355Z,25.70
2023-07-27T12:41:02.523Z,25.60
2023-07-27T12:43:41.617Z,25.30
2023-07-27T12:46:26.808Z,25.00
2023-07-27T12:49:11.060Z,24.90
2023-07-27T12:51:46.736Z,24.70
2023-07-27T12:54:25.927Z,24.50
2023-07-27T12:57:16.693Z,24.30
2023-07-27T12:59:55.940Z,24.30
2023-07-27T13:02:39.968Z,24.10
2023-07-27T13:05:15.007Z,24.10
2023-07-27T13:10:51.499Z,23.70
2023-07-27T13:13:22.170Z,23.70
2023-07-27T13:15:50.611Z,23.80
2023-07-27T13:18:31.499Z,23.70
2023-07-27T13:21:14.423Z,23.60
2023-07-27T13:24:12.589Z,23.50
2023-07-27T13:27:10.899Z,23.40
2023-07-27T13:29:53.006Z,23.30
2023-07-27T13:32:43.745Z,23.20
2023-07-27T13:36:18.702Z,23.20
2023-07-27T13:39:04.333Z,23.10
2023-07-27T13:42:10.938Z,23.20
2023-07-27T13:44:52.023Z,23.10
2023-07-27T13:48:48.192Z,23.30
2023-07-27T13:55:53.425Z,23.40
2023-07-27T13:58:49.540Z,23.10
2023-07-27T14:01:55.150Z,23.20
2023-07-27T14:04:52.781Z,23.20
2023-07-27T14:07:32.165Z,23.20
2023-07-27T14:10:28.865Z,23.30
2023-07-27T14:13:15.671Z,23.20
2023-07-27T14:16:01.898Z,23.20
2023-07-27T14:21:57.969Z,23.30
2023-07-27T14:24:43.515Z,23.20
2023-07-27T14:27:22.784Z,23.30
2023-07-27T14:30:14.149Z,23.30
2023-07-27T14:32:50.862Z,23.30
2023-07-27T14:35:35.506Z,23.10
2023-07-27T14:38:23.153Z,22.90
2023-07-27T14:40:58.781Z,22.60
2023-07-27T14:43:44.588Z,22.40
2023-07-27T14:46:34.517Z,22.20
2023-07-27T14:49:24.267Z,22.10
2023-07-27T14:52:05.730Z,22.20
2023-07-27T14:54:47.967Z,22.00
2023-07-27T14:57:32.747Z,22.20
2023-07-27T15:00:08.813Z,21.90
2023-07-27T15:02:51.610Z,21.80
2023-07-27T15:05:47.400Z,21.80
2023-07-27T15:08:51.642Z,21.90
2023-07-27T15:14:07.119Z,22.00
2023-07-27T15:16:41.584Z,22.10
2023-07-27T15:19:25.506Z,22.10
2023-07-27T15:22:11.105Z,22.20
2023-07-27T15:25:04.788Z,22.20
2023-07-27T15:27:43.596Z,22.20
2023-07-27T15:30:29.580Z,22.20
2023-07-27T15:33:11.089Z,22.10
2023-07-27T15:35:57.327Z,22.10
2023-07-27T15:38:51.337Z,22.20
2023-07-27T15:41:25.460Z,22.10
2023-07-27T15:44:22.242Z,22.00
2023-07-27T15:47:04.775Z,22.00
2023-07-27T15:49:42.916Z,21.80
2023-07-27T15:52:23.805Z,21.70
2023-07-27T15:55:25.550Z,21.70
2023-07-27T15:58:12.369Z,21.60
2023-07-27T16:00:58.705Z,21.50
2023-07-27T16:03:39.634Z,21.50
2023-07-27T16:06:20.328Z,21.50
2023-07-27T16:09:10.184Z,21.40
2023-07-27T16:11:53.299Z,21.30
2023-07-27T16:14:27.019Z,21.30
2023-07-27T16:17:05.551Z,21.20
2023-07-27T16:22:43.666Z,21.20
2023-07-27T16:25:29.164Z,21.20
2023-07-27T16:28:15.877Z,21.20
2023-07-27T16:33:52.825Z,21.20
2023-07-27T16:36:37.042Z,21.30
2023-07-27T16:39:27.513Z,21.30
2023-07-27T16:42:10.613Z,21.40
2023-07-27T16:44:58.889Z,21.50
2023-07-27T16:47:36.075Z,21.40
2023-07-27T16:50:16.339Z,21.40
2023-07-27T16:52:47.574Z,21.30
2023-07-27T16:55:44.650Z,21.30
2023-07-27T16:58:21.580Z,21.30
2023-07-27T17:01:36.571Z,21.30
2023-07-27T17:04:22.353Z,21.30
2023-07-27T17:07:27.483Z,21.20
2023-07-27T17:10:14.914Z,21.20
2023-07-27T17:13:06.497Z,21.30
2023-07-27T17:15:52.585Z,21.10
2023-07-27T17:18:54.750Z,21.20
2023-07-27T17:21:31.776Z,21.20
2023-07-27T17:24:22.594Z,21.20
2023-07-27T17:27:23.075Z,21.20
2023-07-27T17:37:44.080Z,21.10
2023-07-27T17:40:44.372Z,21.10
2023-07-27T17:43:45.213Z,21.00
2023-07-27T17:47:18.182Z,21.00
2023-07-27T17:50:29.969Z,20.90
2023-07-27T17:53:25.317Z,20.90
2023-07-27T17:56:23.394Z,21.20
2023-07-27T17:59:16.787Z,20.90
2023-07-27T18:01:57.931Z,21.00
2023-07-27T18:04:42.804Z,21.00
2023-07-27T18:07:29.618Z,20.90
2023-07-27T18:10:33.101Z,20.90
2023-07-27T18:13:10.224Z,20.90
2023-07-27T18:16:11.550Z,20.90
2023-07-27T18:22:25.882Z,20.90
2023-07-27T18:25:07.284Z,20.90
2023-07-27T18:27:46.190Z,21.00
2023-07-27T18:30:35.020Z,20.90
2023-07-27T18:33:09.541Z,20.90
2023-07-27T18:36:49.949Z,20.80
2023-07-27T18:39:36.739Z,20.90
2023-07-27T18:46:23.752Z,20.90
2023-07-27T18:50:11.776Z,20.90
2023-07-27T18:53:00.274Z,21.00
2023-07-27T18:56:08.431Z,20.90
2023-07-27T19:07:13.216Z,20.90
2023-07-27T19:10:14.486Z,21.00
2023-07-27T19:12:59.561Z,20.90
2023-07-27T19:20:21.924Z,21.00
2023-07-27T19:23:12.694Z,21.00
2023-07-27T19:26:09.622Z,20.90
2023-07-27T19:29:12.152Z,20.90
2023-07-27T19:32:05.374Z,20.90
2023-07-27T19:35:20.444Z,20.90
2023-07-27T19:41:10.176Z,21.00
2023-07-27T19:43:53.307Z,20.90
2023-07-27T19:51:39.677Z,20.90
2023-07-27T19:54:32.545Z,21.10
2023-07-27T19:57:08.942Z,21.00
2023-07-27T20:00:26.976Z,20.90
2023-07-27T20:03:17.590Z,20.90
2023-07-27T20:06:08.879Z,20.80
2023-07-27T20:08:55.367Z,20.90
2023-07-27T20:12:03.020Z,20.80
2023-07-27T20:29:25.010Z,20.70
2023-07-27T20:31:58.577Z,20.90
2023-07-27T20:45:24.699Z,20.90
2023-07-27T21:15:06.701Z,21.00
2023-07-27T21:17:54.649Z,21.10
2023-07-27T21:20:30.826Z,21.00
2023-07-27T21:23:09.447Z,21.40
2023-07-27T21:25:54.641Z,21.20
2023-07-27T21:28:37.587Z,21.20
2023-07-27T21:31:37.779Z,21.10
2023-07-27T21:34:19.634Z,21.20
2023-07-27T21:40:14.177Z,21.20
2023-07-27T21:46:20.885Z,21.00
2023-07-27T21:48:57.527Z,21.30
2023-07-27T21:54:37.156Z,21.10
2023-07-27T21:57:20.080Z,21.00
2023-07-27T22:00:11.997Z,20.90
2023-07-27T22:03:33.064Z,20.80
2023-07-27T22:06:31.461Z,20.80
2023-07-27T22:09:23.962Z,20.70
2023-07-27T22:15:19.603Z,20.70
2023-07-27T22:18:05.816Z,20.80
2023-07-27T22:20:52.087Z,20.70
2023-07-27T22:26:44.595Z,20.70
2023-07-27T22:29:28.136Z,20.80
2023-07-27T22:32:06.536Z,20.70
2023-07-27T22:34:47.170Z,20.80
2023-07-27T22:37:48.509Z,20.80
2023-07-27T22:40:26.875Z,20.80
2023-07-27T22:43:00.032Z,20.80
2023-07-27T22:45:54.955Z,20.90
2023-07-27T22:48:39.730Z,20.90
2023-07-27T22:51:27.154Z,20.90
2023-07-27T23:00:33.643Z,20.90
2023-07-27T23:06:44.248Z,20.90
2023-07-27T23:09:21.371Z,20.90
2023-07-27T23:12:06.953Z,20.90
2023-07-27T23:14:55.262Z,20.80
2023-07-27T23:17:55.425Z,20.90
2023-07-27T23:20:53.160Z,20.90
2023-07-27T23:23:27.365Z,20.90
2023-07-27T23:29:00.202Z,21.00
2023-07-27T23:31:34.866Z,21.00
2023-07-27T23:34:06.945Z,21.00
2023-07-27T23:36:35.411Z,21.00
2023-07-27T23:39:03.933Z,21.00
2023-07-27T23:41:32.151Z,21.00
2023-07-27T23:44:00.571Z,21.10
2023-07-27T23:46:28.868Z,21.10
2023-07-27T23:48:57.097Z,21.10
2023-07-27T23:51:27.242Z,21.20
2023-07-27T23:53:57.769Z,21.10
2023-07-27T23:56:26.037Z,21.20
2023-07-27T23:58:56.539Z,21.00
